sensor_id;sensor_type;location;lat;lon;timestamp;temperature;humidity
65245;DHT22;51846;48.692;2.382;2022-09-09T00:07:20;16.44;82.17
65245;DHT22;51846;48.692;2.382;2022-09-09T00:18:10;16.19;83.07
65245;DHT22;51846;48.692;2.382;2022-09-09T00:21:03;16.25;82.81
65245;DHT22;51846;48.692;2.382;2022-09-09T00:23:34;16.19;82.71
65245;DHT22;51846;48.692;2.382;2022-09-09T00:28:41;16.11;83.18
65245;DHT22;51846;48.692;2.382;2022-09-09T00:31:13;16.11;82.75
65245;DHT22;51846;48.692;2.382;2022-09-09T00:33:40;16.25;82.54
65245;DHT22;51846;48.692;2.382;2022-09-09T00:36:13;16.25;82.62
65245;DHT22;51846;48.692;2.382;2022-09-09T00:38:49;16.28;82.32
65245;DHT22;51846;48.692;2.382;2022-09-09T00:41:22;16.29;82.45
65245;DHT22;51846;48.692;2.382;2022-09-09T00:43:56;16.29;82.34
65245;DHT22;51846;48.692;2.382;2022-09-09T00:52:32;16.12;82.78
65245;DHT22;51846;48.692;2.382;2022-09-09T00:55:17;16.07;82.89
65245;DHT22;51846;48.692;2.382;2022-09-09T00:57:44;16.09;82.83
65245;DHT22;51846;48.692;2.382;2022-09-09T01:05:45;15.84;83.50
65245;DHT22;51846;48.692;2.382;2022-09-09T01:11:04;15.83;83.46
65245;DHT22;51846;48.692;2.382;2022-09-09T01:13:34;15.83;83.62
65245;DHT22;51846;48.692;2.382;2022-09-09T01:16:03;15.85;83.72
65245;DHT22;51846;48.692;2.382;2022-09-09T01:18:43;15.80;83.65
65245;DHT22;51846;48.692;2.382;2022-09-09T01:21:19;15.98;83.21
65245;DHT22;51846;48.692;2.382;2022-09-09T01:26:24;15.84;83.86
65245;DHT22;51846;48.692;2.382;2022-09-09T01:28:52;15.85;83.74
65245;DHT22;51846;48.692;2.382;2022-09-09T01:31:26;15.77;84.02
65245;DHT22;51846;48.692;2.382;2022-09-09T01:33:52;15.73;84.25
65245;DHT22;51846;48.692;2.382;2022-09-09T01:36:43;15.78;84.21
65245;DHT22;51846;48.692;2.382;2022-09-09T01:39:09;15.78;84.08
65245;DHT22;51846;48.692;2.382;2022-09-09T01:41:35;15.80;84.18
65245;DHT22;51846;48.692;2.382;2022-09-09T01:44:02;15.84;84.38
65245;DHT22;51846;48.692;2.382;2022-09-09T01:46:27;15.81;84.53
65245;DHT22;51846;48.692;2.382;2022-09-09T01:48:56;15.81;84.58
65245;DHT22;51846;48.692;2.382;2022-09-09T01:51:22;15.80;84.73
65245;DHT22;51846;48.692;2.382;2022-09-09T01:53:48;15.83;84.79
65245;DHT22;51846;48.692;2.382;2022-09-09T01:56:35;15.98;84.49
65245;DHT22;51846;48.692;2.382;2022-09-09T01:59:45;16.01;84.42
65245;DHT22;51846;48.692;2.382;2022-09-09T02:04:50;16.00;83.92
65245;DHT22;51846;48.692;2.382;2022-09-09T02:07:33;16.07;83.85
65245;DHT22;51846;48.692;2.382;2022-09-09T02:10:20;16.02;83.91
65245;DHT22;51846;48.692;2.382;2022-09-09T02:12:51;16.07;83.75
65245;DHT22;51846;48.692;2.382;2022-09-09T02:18:26;15.88;84.63
65245;DHT22;51846;48.692;2.382;2022-09-09T02:20:53;15.90;84.62
65245;DHT22;51846;48.692;2.382;2022-09-09T02:23:19;15.78;84.84
65245;DHT22;51846;48.692;2.382;2022-09-09T02:25:46;15.91;84.74
65245;DHT22;51846;48.692;2.382;2022-09-09T02:28:15;15.93;84.82
65245;DHT22;51846;48.692;2.382;2022-09-09T02:30:42;15.87;84.97
65245;DHT22;51846;48.692;2.382;2022-09-09T02:33:10;15.85;84.85
65245;DHT22;51846;48.692;2.382;2022-09-09T02:35:38;15.84;84.75
65245;DHT22;51846;48.692;2.382;2022-09-09T02:38:08;15.85;84.76
65245;DHT22;51846;48.692;2.382;2022-09-09T02:40:34;15.91;84.59
65245;DHT22;51846;48.692;2.382;2022-09-09T02:42:59;15.75;85.03
65245;DHT22;51846;48.692;2.382;2022-09-09T02:45:27;15.83;84.82
65245;DHT22;51846;48.692;2.382;2022-09-09T02:48:16;15.87;84.97
65245;DHT22;51846;48.692;2.382;2022-09-09T02:51:08;15.87;84.73
65245;DHT22;51846;48.692;2.382;2022-09-09T02:56:15;15.87;84.74
65245;DHT22;51846;48.692;2.382;2022-09-09T02:58:42;15.71;85.13
65245;DHT22;51846;48.692;2.382;2022-09-09T03:01:07;15.67;85.33
65245;DHT22;51846;48.692;2.382;2022-09-09T03:03:34;15.67;85.74
65245;DHT22;51846;48.692;2.382;2022-09-09T03:05:59;15.77;85.09
65245;DHT22;51846;48.692;2.382;2022-09-09T03:08:25;15.75;85.05
65245;DHT22;51846;48.692;2.382;2022-09-09T03:10:51;15.78;85.07
65245;DHT22;51846;48.692;2.382;2022-09-09T03:13:19;15.80;85.00
65245;DHT22;51846;48.692;2.382;2022-09-09T03:15:44;15.74;85.04
65245;DHT22;51846;48.692;2.382;2022-09-09T03:18:10;15.77;85.17
65245;DHT22;51846;48.692;2.382;2022-09-09T03:20:35;15.87;85.05
65245;DHT22;51846;48.692;2.382;2022-09-09T03:23:01;15.88;84.61
65245;DHT22;51846;48.692;2.382;2022-09-09T03:25:27;15.90;84.74
65245;DHT22;51846;48.692;2.382;2022-09-09T03:27:54;15.94;84.60
65245;DHT22;51846;48.692;2.382;2022-09-09T03:30:24;15.93;84.66
65245;DHT22;51846;48.692;2.382;2022-09-09T03:32:53;15.97;84.46
65245;DHT22;51846;48.692;2.382;2022-09-09T03:35:20;15.95;84.50
65245;DHT22;51846;48.692;2.382;2022-09-09T03:37:45;15.77;84.98
65245;DHT22;51846;48.692;2.382;2022-09-09T03:40:11;15.87;84.83
65245;DHT22;51846;48.692;2.382;2022-09-09T03:42:37;15.85;84.86
65245;DHT22;51846;48.692;2.382;2022-09-09T03:45:12;15.81;84.75
65245;DHT22;51846;48.692;2.382;2022-09-09T03:47:37;15.80;84.92
65245;DHT22;51846;48.692;2.382;2022-09-09T03:50:04;15.83;84.84
65245;DHT22;51846;48.692;2.382;2022-09-09T03:52:34;15.83;84.68
65245;DHT22;51846;48.692;2.382;2022-09-09T03:55:00;15.80;85.02
65245;DHT22;51846;48.692;2.382;2022-09-09T03:57:26;15.78;84.97
65245;DHT22;51846;48.692;2.382;2022-09-09T03:59:52;15.75;85.24
65245;DHT22;51846;48.692;2.382;2022-09-09T04:02:17;15.71;85.33
65245;DHT22;51846;48.692;2.382;2022-09-09T04:04:43;15.71;85.39
65245;DHT22;51846;48.692;2.382;2022-09-09T04:07:08;15.61;85.76
65245;DHT22;51846;48.692;2.382;2022-09-09T04:09:33;15.61;86.03
65245;DHT22;51846;48.692;2.382;2022-09-09T04:12:00;15.60;86.10
65245;DHT22;51846;48.692;2.382;2022-09-09T04:14:25;15.65;86.01
65245;DHT22;51846;48.692;2.382;2022-09-09T04:16:54;15.58;86.13
65245;DHT22;51846;48.692;2.382;2022-09-09T04:19:19;15.57;86.24
65245;DHT22;51846;48.692;2.382;2022-09-09T04:21:44;15.63;86.47
65245;DHT22;51846;48.692;2.382;2022-09-09T04:24:10;15.70;86.31
65245;DHT22;51846;48.692;2.382;2022-09-09T04:26:36;15.75;85.94
65245;DHT22;51846;48.692;2.382;2022-09-09T04:29:03;15.78;85.92
65245;DHT22;51846;48.692;2.382;2022-09-09T04:31:28;15.78;85.79
65245;DHT22;51846;48.692;2.382;2022-09-09T04:33:54;15.85;85.50
65245;DHT22;51846;48.692;2.382;2022-09-09T04:36:20;15.77;85.71
65245;DHT22;51846;48.692;2.382;2022-09-09T04:38:45;15.80;85.84
65245;DHT22;51846;48.692;2.382;2022-09-09T04:41:11;15.85;85.82
65245;DHT22;51846;48.692;2.382;2022-09-09T04:43:38;15.77;85.76
65245;DHT22;51846;48.692;2.382;2022-09-09T04:46:04;15.73;86.10
65245;DHT22;51846;48.692;2.382;2022-09-09T04:48:30;15.61;86.57
65245;DHT22;51846;48.692;2.382;2022-09-09T04:51:05;15.60;86.66
65245;DHT22;51846;48.692;2.382;2022-09-09T04:53:31;15.65;86.29
65245;DHT22;51846;48.692;2.382;2022-09-09T04:56:10;15.71;86.31
65245;DHT22;51846;48.692;2.382;2022-09-09T04:58:36;15.67;86.34
65245;DHT22;51846;48.692;2.382;2022-09-09T05:01:06;15.73;86.30
65245;DHT22;51846;48.692;2.382;2022-09-09T05:03:32;15.63;86.63
65245;DHT22;51846;48.692;2.382;2022-09-09T05:06:09;15.60;86.85
65245;DHT22;51846;48.692;2.382;2022-09-09T05:08:36;15.64;87.01
65245;DHT22;51846;48.692;2.382;2022-09-09T05:11:03;15.68;86.94
65245;DHT22;51846;48.692;2.382;2022-09-09T05:13:29;15.85;86.21
65245;DHT22;51846;48.692;2.382;2022-09-09T05:15:56;15.81;86.09
65245;DHT22;51846;48.692;2.382;2022-09-09T05:18:22;15.75;86.48
65245;DHT22;51846;48.692;2.382;2022-09-09T05:20:58;15.75;86.33
65245;DHT22;51846;48.692;2.382;2022-09-09T05:23:23;15.81;86.33
65245;DHT22;51846;48.692;2.382;2022-09-09T05:25:58;15.81;86.27
65245;DHT22;51846;48.692;2.382;2022-09-09T05:28:25;15.88;86.24
65245;DHT22;51846;48.692;2.382;2022-09-09T05:31:02;15.91;86.15
65245;DHT22;51846;48.692;2.382;2022-09-09T05:33:30;15.78;86.47
65245;DHT22;51846;48.692;2.382;2022-09-09T05:36:01;15.78;86.68
65245;DHT22;51846;48.692;2.382;2022-09-09T05:38:28;15.84;86.55
65245;DHT22;51846;48.692;2.382;2022-09-09T05:40:54;15.84;86.34
65245;DHT22;51846;48.692;2.382;2022-09-09T05:43:21;15.83;86.32
65245;DHT22;51846;48.692;2.382;2022-09-09T05:45:47;15.83;86.46
65245;DHT22;51846;48.692;2.382;2022-09-09T05:48:16;15.83;86.40
65245;DHT22;51846;48.692;2.382;2022-09-09T05:50:42;15.87;86.14
65245;DHT22;51846;48.692;2.382;2022-09-09T05:53:08;15.90;86.17
65245;DHT22;51846;48.692;2.382;2022-09-09T05:55:34;16.00;86.02
65245;DHT22;51846;48.692;2.382;2022-09-09T05:57:59;16.05;85.65
65245;DHT22;51846;48.692;2.382;2022-09-09T06:00:25;16.07;85.51
65245;DHT22;51846;48.692;2.382;2022-09-09T06:02:52;16.11;85.44
65245;DHT22;51846;48.692;2.382;2022-09-09T06:05:18;16.08;85.51
65245;DHT22;51846;48.692;2.382;2022-09-09T06:07:43;16.05;85.75
65245;DHT22;51846;48.692;2.382;2022-09-09T06:10:10;16.04;85.79
65245;DHT22;51846;48.692;2.382;2022-09-09T06:12:36;16.17;85.34
65245;DHT22;51846;48.692;2.382;2022-09-09T06:15:01;16.11;85.45
65245;DHT22;51846;48.692;2.382;2022-09-09T06:17:27;16.12;85.49
65245;DHT22;51846;48.692;2.382;2022-09-09T06:19:52;16.12;85.60
65245;DHT22;51846;48.692;2.382;2022-09-09T06:22:18;16.12;85.81
65245;DHT22;51846;48.692;2.382;2022-09-09T06:24:44;16.15;85.79
65245;DHT22;51846;48.692;2.382;2022-09-09T06:27:10;16.14;85.56
65245;DHT22;51846;48.692;2.382;2022-09-09T06:29:36;16.12;85.71
65245;DHT22;51846;48.692;2.382;2022-09-09T06:32:02;16.21;85.60
65245;DHT22;51846;48.692;2.382;2022-09-09T06:34:28;16.15;85.70
65245;DHT22;51846;48.692;2.382;2022-09-09T06:36:54;16.21;85.62
65245;DHT22;51846;48.692;2.382;2022-09-09T06:39:20;16.26;85.40
65245;DHT22;51846;48.692;2.382;2022-09-09T06:41:46;16.33;85.31
65245;DHT22;51846;48.692;2.382;2022-09-09T06:44:12;16.35;85.09
65245;DHT22;51846;48.692;2.382;2022-09-09T06:46:37;16.39;84.89
65245;DHT22;51846;48.692;2.382;2022-09-09T06:49:03;16.48;84.63
65245;DHT22;51846;48.692;2.382;2022-09-09T06:51:30;16.52;84.22
65245;DHT22;51846;48.692;2.382;2022-09-09T06:53:57;16.56;83.93
65245;DHT22;51846;48.692;2.382;2022-09-09T06:56:34;16.65;83.64
65245;DHT22;51846;48.692;2.382;2022-09-09T06:59:02;16.70;83.33
65245;DHT22;51846;48.692;2.382;2022-09-09T07:01:30;16.72;82.96
65245;DHT22;51846;48.692;2.382;2022-09-09T07:03:57;16.79;82.86
65245;DHT22;51846;48.692;2.382;2022-09-09T07:06:41;16.77;82.45
65245;DHT22;51846;48.692;2.382;2022-09-09T07:09:10;16.89;82.37
65245;DHT22;51846;48.692;2.382;2022-09-09T07:11:44;16.84;82.01
65245;DHT22;51846;48.692;2.382;2022-09-09T07:14:10;16.90;82.33
65245;DHT22;51846;48.692;2.382;2022-09-09T07:16:40;17.10;81.71
65245;DHT22;51846;48.692;2.382;2022-09-09T07:19:05;17.10;81.09
65245;DHT22;51846;48.692;2.382;2022-09-09T07:21:32;17.09;80.84
65245;DHT22;51846;48.692;2.382;2022-09-09T07:23:58;17.13;80.73
65245;DHT22;51846;48.692;2.382;2022-09-09T07:26:27;17.12;80.89
65245;DHT22;51846;48.692;2.382;2022-09-09T07:28:53;17.14;80.59
65245;DHT22;51846;48.692;2.382;2022-09-09T07:31:21;17.27;79.65
65245;DHT22;51846;48.692;2.382;2022-09-09T07:33:47;17.30;79.85
65245;DHT22;51846;48.692;2.382;2022-09-09T07:36:22;17.43;79.51
65245;DHT22;51846;48.692;2.382;2022-09-09T07:38:50;17.54;78.84
65245;DHT22;51846;48.692;2.382;2022-09-09T07:41:25;17.50;79.05
65245;DHT22;51846;48.692;2.382;2022-09-09T07:43:51;17.63;78.67
65245;DHT22;51846;48.692;2.382;2022-09-09T07:46:20;17.64;78.47
65245;DHT22;51846;48.692;2.382;2022-09-09T07:48:48;17.74;78.78
65245;DHT22;51846;48.692;2.382;2022-09-09T07:51:18;17.81;78.22
65245;DHT22;51846;48.692;2.382;2022-09-09T07:53:45;17.91;77.38
65245;DHT22;51846;48.692;2.382;2022-09-09T07:56:13;17.89;77.10
65245;DHT22;51846;48.692;2.382;2022-09-09T07:58:40;17.89;76.82
65245;DHT22;51846;48.692;2.382;2022-09-09T08:01:14;17.95;75.44
65245;DHT22;51846;48.692;2.382;2022-09-09T08:03:41;17.94;76.06
65245;DHT22;51846;48.692;2.382;2022-09-09T08:06:08;17.88;75.86
65245;DHT22;51846;48.692;2.382;2022-09-09T08:08:35;17.95;76.10
65245;DHT22;51846;48.692;2.382;2022-09-09T08:11:10;17.98;75.77
65245;DHT22;51846;48.692;2.382;2022-09-09T08:13:37;17.99;75.45
65245;DHT22;51846;48.692;2.382;2022-09-09T08:16:04;17.97;75.56
65245;DHT22;51846;48.692;2.382;2022-09-09T08:18:30;17.98;75.66
65245;DHT22;51846;48.692;2.382;2022-09-09T08:20:56;18.08;75.34
65245;DHT22;51846;48.692;2.382;2022-09-09T08:23:21;18.01;75.05
65245;DHT22;51846;48.692;2.382;2022-09-09T08:25:48;18.02;75.24
65245;DHT22;51846;48.692;2.382;2022-09-09T08:28:15;18.06;74.91
65245;DHT22;51846;48.692;2.382;2022-09-09T08:30:40;18.15;73.95
65245;DHT22;51846;48.692;2.382;2022-09-09T08:33:06;18.15;74.64
65245;DHT22;51846;48.692;2.382;2022-09-09T08:35:33;18.18;74.42
65245;DHT22;51846;48.692;2.382;2022-09-09T08:37:58;18.21;74.17
65245;DHT22;51846;48.692;2.382;2022-09-09T08:40:28;18.12;74.53
65245;DHT22;51846;48.692;2.382;2022-09-09T08:42:57;18.24;74.53
65245;DHT22;51846;48.692;2.382;2022-09-09T08:45:44;18.33;74.37
65245;DHT22;51846;48.692;2.382;2022-09-09T08:48:29;18.33;73.76
65245;DHT22;51846;48.692;2.382;2022-09-09T08:51:01;18.43;73.33
65245;DHT22;51846;48.692;2.382;2022-09-09T08:53:33;18.55;73.36
65245;DHT22;51846;48.692;2.382;2022-09-09T08:56:09;18.69;73.62
65245;DHT22;51846;48.692;2.382;2022-09-09T08:58:51;18.82;73.42
65245;DHT22;51846;48.692;2.382;2022-09-09T09:01:43;18.87;72.85
65245;DHT22;51846;48.692;2.382;2022-09-09T09:07:09;18.89;72.69
65245;DHT22;51846;48.692;2.382;2022-09-09T09:12:41;18.80;73.04
65245;DHT22;51846;48.692;2.382;2022-09-09T09:15:16;18.72;73.10
65245;DHT22;51846;48.692;2.382;2022-09-09T09:17:43;18.70;73.18
65245;DHT22;51846;48.692;2.382;2022-09-09T09:20:16;18.67;73.34
65245;DHT22;51846;48.692;2.382;2022-09-09T09:22:50;18.46;73.52
65245;DHT22;51846;48.692;2.382;2022-09-09T09:25:22;18.52;74.05
65245;DHT22;51846;48.692;2.382;2022-09-09T09:28:07;18.55;73.71
65245;DHT22;51846;48.692;2.382;2022-09-09T09:30:39;18.49;73.31
65245;DHT22;51846;48.692;2.382;2022-09-09T09:35:52;18.72;73.15
65245;DHT22;51846;48.692;2.382;2022-09-09T09:38:22;18.86;72.58
65245;DHT22;51846;48.692;2.382;2022-09-09T09:40:56;18.99;72.71
65245;DHT22;51846;48.692;2.382;2022-09-09T09:43:28;19.17;71.18
65245;DHT22;51846;48.692;2.382;2022-09-09T09:45:53;19.34;71.54
65245;DHT22;51846;48.692;2.382;2022-09-09T09:48:19;19.67;69.69
65245;DHT22;51846;48.692;2.382;2022-09-09T09:53:24;19.59;70.41
65245;DHT22;51846;48.692;2.382;2022-09-09T09:55:55;19.51;70.02
65245;DHT22;51846;48.692;2.382;2022-09-09T09:58:21;19.38;69.67
65245;DHT22;51846;48.692;2.382;2022-09-09T10:00:50;19.26;70.78
65245;DHT22;51846;48.692;2.382;2022-09-09T10:03:28;19.06;71.31
65245;DHT22;51846;48.692;2.382;2022-09-09T10:05:54;19.13;70.98
65245;DHT22;51846;48.692;2.382;2022-09-09T10:08:22;19.14;71.34
65245;DHT22;51846;48.692;2.382;2022-09-09T10:13:34;19.23;71.47
65245;DHT22;51846;48.692;2.382;2022-09-09T10:16:08;19.27;71.84
65245;DHT22;51846;48.692;2.382;2022-09-09T10:26:46;19.78;68.99
65245;DHT22;51846;48.692;2.382;2022-09-09T10:34:28;19.67;69.05
65245;DHT22;51846;48.692;2.382;2022-09-09T10:36:56;19.75;69.09
65245;DHT22;51846;48.692;2.382;2022-09-09T10:39:33;19.72;68.39
65245;DHT22;51846;48.692;2.382;2022-09-09T10:42:07;19.82;68.53
65245;DHT22;51846;48.692;2.382;2022-09-09T10:55:14;20.50;64.14
65245;DHT22;51846;48.692;2.382;2022-09-09T10:57:46;20.81;64.27
65245;DHT22;51846;48.692;2.382;2022-09-09T11:00:23;20.70;64.75
65245;DHT22;51846;48.692;2.382;2022-09-09T11:03:03;20.52;65.72
65245;DHT22;51846;48.692;2.382;2022-09-09T11:05:44;20.56;64.92
65245;DHT22;51846;48.692;2.382;2022-09-09T11:08:19;20.36;64.96
65245;DHT22;51846;48.692;2.382;2022-09-09T11:10:51;20.36;65.28
65245;DHT22;51846;48.692;2.382;2022-09-09T11:13:46;20.29;65.14
65245;DHT22;51846;48.692;2.382;2022-09-09T11:18:49;21.08;64.47
65245;DHT22;51846;48.692;2.382;2022-09-09T11:21:25;21.35;63.46
65245;DHT22;51846;48.692;2.382;2022-09-09T11:23:58;21.15;64.44
65245;DHT22;51846;48.692;2.382;2022-09-09T11:26:36;20.80;64.40
65245;DHT22;51846;48.692;2.382;2022-09-09T11:32:00;20.83;64.73
65245;DHT22;51846;48.692;2.382;2022-09-09T11:40:23;21.12;63.09
65245;DHT22;51846;48.692;2.382;2022-09-09T11:42:49;20.86;62.77
65245;DHT22;51846;48.692;2.382;2022-09-09T11:45:27;20.84;64.24
65245;DHT22;51846;48.692;2.382;2022-09-09T11:47:57;20.96;62.11
65245;DHT22;51846;48.692;2.382;2022-09-09T11:52:48;20.91;63.19
65245;DHT22;51846;48.692;2.382;2022-09-09T11:55:26;20.84;62.96
65245;DHT22;51846;48.692;2.382;2022-09-09T11:58:19;20.86;62.47
65245;DHT22;51846;48.692;2.382;2022-09-09T12:00:49;20.87;61.89
65245;DHT22;51846;48.692;2.382;2022-09-09T12:03:47;21.03;61.68
65245;DHT22;51846;48.692;2.382;2022-09-09T12:06:15;21.04;62.00
65245;DHT22;51846;48.692;2.382;2022-09-09T12:08:44;20.97;62.24
65245;DHT22;51846;48.692;2.382;2022-09-09T12:11:10;20.90;62.13
65245;DHT22;51846;48.692;2.382;2022-09-09T12:13:36;20.84;62.62
65245;DHT22;51846;48.692;2.382;2022-09-09T12:16:02;20.83;62.12
65245;DHT22;51846;48.692;2.382;2022-09-09T12:18:38;20.77;62.12
65245;DHT22;51846;48.692;2.382;2022-09-09T12:21:12;20.93;62.33
65245;DHT22;51846;48.692;2.382;2022-09-09T12:23:53;20.88;61.61
65245;DHT22;51846;48.692;2.382;2022-09-09T12:29:21;20.93;60.82
65245;DHT22;51846;48.692;2.382;2022-09-09T12:32:09;20.90;61.69
65245;DHT22;51846;48.692;2.382;2022-09-09T12:34:47;20.94;61.30
65245;DHT22;51846;48.692;2.382;2022-09-09T12:37:35;20.91;61.35
65245;DHT22;51846;48.692;2.382;2022-09-09T12:40:04;20.94;60.30
65245;DHT22;51846;48.692;2.382;2022-09-09T12:42:30;20.90;60.29
65245;DHT22;51846;48.692;2.382;2022-09-09T12:45:03;20.88;60.05
65245;DHT22;51846;48.692;2.382;2022-09-09T12:47:38;20.90;59.30
65245;DHT22;51846;48.692;2.382;2022-09-09T12:50:26;20.84;61.02
65245;DHT22;51846;48.692;2.382;2022-09-09T12:53:02;20.87;60.65
65245;DHT22;51846;48.692;2.382;2022-09-09T12:55:31;20.83;60.74
65245;DHT22;51846;48.692;2.382;2022-09-09T12:57:58;20.84;60.84
65245;DHT22;51846;48.692;2.382;2022-09-09T13:00:25;20.88;61.04
65245;DHT22;51846;48.692;2.382;2022-09-09T13:03:41;20.81;62.26
65245;DHT22;51846;48.692;2.382;2022-09-09T13:05:42;20.79;61.50
65245;DHT22;51846;48.692;2.382;2022-09-09T13:08:11;20.80;61.69
65245;DHT22;51846;48.692;2.382;2022-09-09T13:11:01;20.77;61.85
65245;DHT22;51846;48.692;2.382;2022-09-09T13:13:31;20.74;60.91
65245;DHT22;51846;48.692;2.382;2022-09-09T13:16:00;20.74;60.30
65245;DHT22;51846;48.692;2.382;2022-09-09T13:18:29;20.66;60.54
65245;DHT22;51846;48.692;2.382;2022-09-09T13:20:55;20.69;61.14
65245;DHT22;51846;48.692;2.382;2022-09-09T13:23:32;20.66;61.47
65245;DHT22;51846;48.692;2.382;2022-09-09T13:26:05;20.56;63.42
65245;DHT22;51846;48.692;2.382;2022-09-09T13:28:33;20.50;65.73
65245;DHT22;51846;48.692;2.382;2022-09-09T13:31:02;20.25;67.87
65245;DHT22;51846;48.692;2.382;2022-09-09T13:33:38;19.92;70.04
65245;DHT22;51846;48.692;2.382;2022-09-09T13:36:09;19.59;73.97
65245;DHT22;51846;48.692;2.382;2022-09-09T13:38:38;19.35;76.38
65245;DHT22;51846;48.692;2.382;2022-09-09T13:41:08;19.16;78.40
65245;DHT22;51846;48.692;2.382;2022-09-09T13:43:42;19.00;78.78
65245;DHT22;51846;48.692;2.382;2022-09-09T13:46:36;18.83;80.31
65245;DHT22;51846;48.692;2.382;2022-09-09T13:49:19;18.77;80.47
65245;DHT22;51846;48.692;2.382;2022-09-09T13:51:51;18.70;80.39
65245;DHT22;51846;48.692;2.382;2022-09-09T13:54:27;18.70;81.12
65245;DHT22;51846;48.692;2.382;2022-09-09T13:56:52;18.73;81.11
65245;DHT22;51846;48.692;2.382;2022-09-09T13:59:20;18.70;82.19
65245;DHT22;51846;48.692;2.382;2022-09-09T14:01:46;18.74;80.62
65245;DHT22;51846;48.692;2.382;2022-09-09T14:04:11;18.77;81.32
65245;DHT22;51846;48.692;2.382;2022-09-09T14:06:38;18.74;81.40
65245;DHT22;51846;48.692;2.382;2022-09-09T14:09:10;18.79;81.41
65245;DHT22;51846;48.692;2.382;2022-09-09T14:11:36;18.84;81.84
65245;DHT22;51846;48.692;2.382;2022-09-09T14:14:02;18.90;82.35
65245;DHT22;51846;48.692;2.382;2022-09-09T14:16:28;19.02;83.21
65245;DHT22;51846;48.692;2.382;2022-09-09T14:18:54;19.20;82.76
65245;DHT22;51846;48.692;2.382;2022-09-09T14:21:25;19.34;81.28
65245;DHT22;51846;48.692;2.382;2022-09-09T14:23:50;19.38;79.18
65245;DHT22;51846;48.692;2.382;2022-09-09T14:26:16;19.37;75.92
65245;DHT22;51846;48.692;2.382;2022-09-09T14:28:44;19.34;78.53
65245;DHT22;51846;48.692;2.382;2022-09-09T14:31:10;19.35;77.02
65245;DHT22;51846;48.692;2.382;2022-09-09T14:33:35;19.39;76.54
65245;DHT22;51846;48.692;2.382;2022-09-09T14:36:02;19.43;76.37
65245;DHT22;51846;48.692;2.382;2022-09-09T14:38:29;19.39;76.75
65245;DHT22;51846;48.692;2.382;2022-09-09T14:40:55;19.43;75.10
65245;DHT22;51846;48.692;2.382;2022-09-09T14:43:21;19.38;76.18
65245;DHT22;51846;48.692;2.382;2022-09-09T14:45:47;19.43;76.61
65245;DHT22;51846;48.692;2.382;2022-09-09T14:48:13;19.37;75.54
65245;DHT22;51846;48.692;2.382;2022-09-09T14:50:40;19.31;75.60
65245;DHT22;51846;48.692;2.382;2022-09-09T14:53:07;19.24;77.12
65245;DHT22;51846;48.692;2.382;2022-09-09T14:55:33;19.18;77.92
65245;DHT22;51846;48.692;2.382;2022-09-09T14:57:59;19.18;75.77
65245;DHT22;51846;48.692;2.382;2022-09-09T15:00:24;19.13;76.72
65245;DHT22;51846;48.692;2.382;2022-09-09T15:02:52;19.10;76.46
65245;DHT22;51846;48.692;2.382;2022-09-09T15:05:18;19.13;76.84
65245;DHT22;51846;48.692;2.382;2022-09-09T15:07:44;19.20;77.39
65245;DHT22;51846;48.692;2.382;2022-09-09T15:10:10;19.27;76.61
65245;DHT22;51846;48.692;2.382;2022-09-09T15:12:36;19.37;74.45
65245;DHT22;51846;48.692;2.382;2022-09-09T15:15:02;19.41;74.15
65245;DHT22;51846;48.692;2.382;2022-09-09T15:17:28;19.38;73.84
65245;DHT22;51846;48.692;2.382;2022-09-09T15:19:53;19.35;75.19
65245;DHT22;51846;48.692;2.382;2022-09-09T15:22:20;19.28;75.08
65245;DHT22;51846;48.692;2.382;2022-09-09T15:24:45;19.30;74.72
65245;DHT22;51846;48.692;2.382;2022-09-09T15:27:10;19.27;74.72
65245;DHT22;51846;48.692;2.382;2022-09-09T15:29:36;19.26;74.87
65245;DHT22;51846;48.692;2.382;2022-09-09T15:32:03;19.10;75.56
65245;DHT22;51846;48.692;2.382;2022-09-09T15:34:28;19.02;76.54
65245;DHT22;51846;48.692;2.382;2022-09-09T15:36:54;19.06;75.95
65245;DHT22;51846;48.692;2.382;2022-09-09T15:39:20;19.11;75.74
65245;DHT22;51846;48.692;2.382;2022-09-09T15:41:47;18.99;77.64
65245;DHT22;51846;48.692;2.382;2022-09-09T15:44:14;19.02;76.60
65245;DHT22;51846;48.692;2.382;2022-09-09T15:46:49;19.00;77.41
65245;DHT22;51846;48.692;2.382;2022-09-09T15:49:16;19.13;76.53
65245;DHT22;51846;48.692;2.382;2022-09-09T15:51:44;18.93;77.43
65245;DHT22;51846;48.692;2.382;2022-09-09T15:54:15;18.84;77.70
65245;DHT22;51846;48.692;2.382;2022-09-09T15:56:45;18.94;76.97
65245;DHT22;51846;48.692;2.382;2022-09-09T15:59:11;18.84;76.64
65245;DHT22;51846;48.692;2.382;2022-09-09T16:01:38;18.87;77.07
65245;DHT22;51846;48.692;2.382;2022-09-09T16:04:05;18.92;77.06
65245;DHT22;51846;48.692;2.382;2022-09-09T16:06:33;18.60;78.01
65245;DHT22;51846;48.692;2.382;2022-09-09T16:08:59;18.66;77.01
65245;DHT22;51846;48.692;2.382;2022-09-09T16:11:31;18.69;76.98
65245;DHT22;51846;48.692;2.382;2022-09-09T16:13:57;18.69;76.85
65245;DHT22;51846;48.692;2.382;2022-09-09T16:16:26;18.72;75.71
65245;DHT22;51846;48.692;2.382;2022-09-09T16:18:54;18.66;76.62
65245;DHT22;51846;48.692;2.382;2022-09-09T16:23:58;18.55;75.93
65245;DHT22;51846;48.692;2.382;2022-09-09T16:26:24;18.52;76.26
65245;DHT22;51846;48.692;2.382;2022-09-09T16:28:50;18.39;76.29
65245;DHT22;51846;48.692;2.382;2022-09-09T16:31:18;18.28;76.39
65245;DHT22;51846;48.692;2.382;2022-09-09T16:33:44;18.39;75.64
65245;DHT22;51846;48.692;2.382;2022-09-09T16:36:12;18.38;75.55
65245;DHT22;51846;48.692;2.382;2022-09-09T16:38:39;18.42;75.70
65245;DHT22;51846;48.692;2.382;2022-09-09T16:41:06;18.45;75.27
65245;DHT22;51846;48.692;2.382;2022-09-09T16:43:35;18.46;74.42
65245;DHT22;51846;48.692;2.382;2022-09-09T16:46:02;18.40;75.23
65245;DHT22;51846;48.692;2.382;2022-09-09T16:48:32;18.35;75.68
65245;DHT22;51846;48.692;2.382;2022-09-09T16:51:05;18.33;76.05
65245;DHT22;51846;48.692;2.382;2022-09-09T16:53:32;18.35;76.09
65245;DHT22;51846;48.692;2.382;2022-09-09T16:55:57;18.36;75.64
65245;DHT22;51846;48.692;2.382;2022-09-09T16:58:23;18.24;76.21
65245;DHT22;51846;48.692;2.382;2022-09-09T17:00:48;18.29;75.72
65245;DHT22;51846;48.692;2.382;2022-09-09T17:03:14;18.13;76.06
65245;DHT22;51846;48.692;2.382;2022-09-09T17:05:40;18.18;76.34
65245;DHT22;51846;48.692;2.382;2022-09-09T17:08:06;18.24;76.19
65245;DHT22;51846;48.692;2.382;2022-09-09T17:10:31;18.25;75.88
65245;DHT22;51846;48.692;2.382;2022-09-09T17:12:57;18.26;76.06
65245;DHT22;51846;48.692;2.382;2022-09-09T17:15:22;18.28;75.13
65245;DHT22;51846;48.692;2.382;2022-09-09T17:17:48;18.26;75.28
65245;DHT22;51846;48.692;2.382;2022-09-09T17:20:19;18.09;75.61
65245;DHT22;51846;48.692;2.382;2022-09-09T17:22:44;18.19;75.41
65245;DHT22;51846;48.692;2.382;2022-09-09T17:25:10;18.04;76.19